sensor_id;sensor_type;location;lat;lon;timestamp;P1;durP1;ratioP1;P2;durP2;ratioP2
10277;SDS011;5184;51.376;7.148;2023-12-28T00:00:59;2.60;;;2.10;;
10277;SDS011;5184;51.376;7.148;2023-12-28T00:03:26;4.47;;;2.30;;
10277;SDS011;5184;51.376;7.148;2023-12-28T00:05:52;2.53;;;2.33;;
10277;SDS011;5184;51.376;7.148;2023-12-28T00:08:19;4.20;;;2.53;;
10277;SDS011;5184;51.376;7.148;2023-12-28T00:10:45;3.50;;;2.53;;
10277;SDS011;5184;51.376;7.148;2023-12-28T00:13:12;3.30;;;2.57;;
10277;SDS011;5184;51.376;7.148;2023-12-28T00:15:38;3.83;;;2.37;;
10277;SDS011;5184;51.376;7.148;2023-12-28T00:18:06;3.63;;;2.50;;
10277;SDS011;5184;51.376;7.148;2023-12-28T00:20:33;3.97;;;2.47;;
10277;SDS011;5184;51.376;7.148;2023-12-28T00:23:00;5.20;;;2.60;;
10277;SDS011;5184;51.376;7.148;2023-12-28T00:25:26;3.47;;;2.43;;
10277;SDS011;5184;51.376;7.148;2023-12-28T00:27:53;3.70;;;2.60;;
10277;SDS011;5184;51.376;7.148;2023-12-28T00:30:20;3.60;;;2.77;;
10277;SDS011;5184;51.376;7.148;2023-12-28T00:32:46;3.17;;;2.43;;
10277;SDS011;5184;51.376;7.148;2023-12-28T00:35:14;6.60;;;3.07;;
10277;SDS011;5184;51.376;7.148;2023-12-28T00:37:41;6.90;;;2.70;;
10277;SDS011;5184;51.376;7.148;2023-12-28T00:40:08;3.70;;;2.50;;
10277;SDS011;5184;51.376;7.148;2023-12-28T00:42:35;3.23;;;2.80;;
10277;SDS011;5184;51.376;7.148;2023-12-28T00:45:02;3.00;;;2.67;;
10277;SDS011;5184;51.376;7.148;2023-12-28T00:47:28;4.50;;;2.60;;
10277;SDS011;5184;51.376;7.148;2023-12-28T00:49:55;4.17;;;2.50;;
10277;SDS011;5184;51.376;7.148;2023-12-28T00:52:22;4.60;;;2.63;;
10277;SDS011;5184;51.376;7.148;2023-12-28T00:54:48;3.13;;;2.60;;
10277;SDS011;5184;51.376;7.148;2023-12-28T00:57:15;3.50;;;2.27;;
10277;SDS011;5184;51.376;7.148;2023-12-28T00:59:42;2.70;;;2.50;;
10277;SDS011;5184;51.376;7.148;2023-12-28T01:02:09;3.07;;;2.50;;
10277;SDS011;5184;51.376;7.148;2023-12-28T01:04:37;3.67;;;2.40;;
10277;SDS011;5184;51.376;7.148;2023-12-28T01:07:04;4.30;;;2.50;;
10277;SDS011;5184;51.376;7.148;2023-12-28T01:09:32;3.17;;;2.30;;
10277;SDS011;5184;51.376;7.148;2023-12-28T01:11:59;3.10;;;2.33;;
10277;SDS011;5184;51.376;7.148;2023-12-28T01:14:26;2.97;;;2.67;;
10277;SDS011;5184;51.376;7.148;2023-12-28T01:16:53;3.47;;;2.20;;
10277;SDS011;5184;51.376;7.148;2023-12-28T01:19:19;5.20;;;2.50;;
10277;SDS011;5184;51.376;7.148;2023-12-28T01:21:46;2.83;;;2.40;;
10277;SDS011;5184;51.376;7.148;2023-12-28T01:24:13;3.70;;;2.07;;
10277;SDS011;5184;51.376;7.148;2023-12-28T01:26:39;4.03;;;2.27;;
10277;SDS011;5184;51.376;7.148;2023-12-28T01:29:06;2.53;;;2.30;;
10277;SDS011;5184;51.376;7.148;2023-12-28T01:31:32;5.67;;;2.27;;
10277;SDS011;5184;51.376;7.148;2023-12-28T01:34:00;2.17;;;1.93;;
10277;SDS011;5184;51.376;7.148;2023-12-28T01:36:27;2.63;;;2.13;;
10277;SDS011;5184;51.376;7.148;2023-12-28T01:38:54;2.77;;;2.30;;
10277;SDS011;5184;51.376;7.148;2023-12-28T01:41:22;4.23;;;2.37;;
10277;SDS011;5184;51.376;7.148;2023-12-28T01:43:49;2.33;;;1.83;;
10277;SDS011;5184;51.376;7.148;2023-12-28T01:46:17;4.03;;;2.57;;
10277;SDS011;5184;51.376;7.148;2023-12-28T01:48:44;2.10;;;1.90;;
10277;SDS011;5184;51.376;7.148;2023-12-28T01:51:10;3.90;;;2.23;;
10277;SDS011;5184;51.376;7.148;2023-12-28T01:53:37;2.60;;;2.40;;
10277;SDS011;5184;51.376;7.148;2023-12-28T01:56:04;2.67;;;2.10;;
10277;SDS011;5184;51.376;7.148;2023-12-28T01:58:32;2.40;;;2.20;;
10277;SDS011;5184;51.376;7.148;2023-12-28T02:00:57;4.70;;;2.57;;
10277;SDS011;5184;51.376;7.148;2023-12-28T02:03:24;3.93;;;2.43;;
10277;SDS011;5184;51.376;7.148;2023-12-28T02:05:51;3.63;;;2.10;;
10277;SDS011;5184;51.376;7.148;2023-12-28T02:08:17;3.07;;;2.10;;
10277;SDS011;5184;51.376;7.148;2023-12-28T02:10:44;2.63;;;2.43;;
10277;SDS011;5184;51.376;7.148;2023-12-28T02:13:12;2.90;;;2.07;;
10277;SDS011;5184;51.376;7.148;2023-12-28T02:15:39;3.47;;;2.60;;
10277;SDS011;5184;51.376;7.148;2023-12-28T02:18:10;2.53;;;2.13;;
10277;SDS011;5184;51.376;7.148;2023-12-28T02:20:38;2.40;;;2.20;;
10277;SDS011;5184;51.376;7.148;2023-12-28T02:23:04;3.27;;;2.40;;
10277;SDS011;5184;51.376;7.148;2023-12-28T02:25:31;2.77;;;2.40;;
10277;SDS011;5184;51.376;7.148;2023-12-28T02:27:57;2.97;;;2.20;;
10277;SDS011;5184;51.376;7.148;2023-12-28T02:30:25;2.27;;;1.87;;
10277;SDS011;5184;51.376;7.148;2023-12-28T02:32:52;2.47;;;2.23;;
10277;SDS011;5184;51.376;7.148;2023-12-28T02:35:20;3.43;;;2.33;;
10277;SDS011;5184;51.376;7.148;2023-12-28T02:37:51;3.13;;;2.20;;
10277;SDS011;5184;51.376;7.148;2023-12-28T02:40:17;2.70;;;1.90;;
10277;SDS011;5184;51.376;7.148;2023-12-28T02:42:45;2.90;;;2.37;;
10277;SDS011;5184;51.376;7.148;2023-12-28T02:45:11;2.40;;;2.17;;
10277;SDS011;5184;51.376;7.148;2023-12-28T02:47:38;2.23;;;2.00;;
10277;SDS011;5184;51.376;7.148;2023-12-28T02:50:05;2.30;;;2.10;;
10277;SDS011;5184;51.376;7.148;2023-12-28T02:52:32;2.63;;;2.00;;
10277;SDS011;5184;51.376;7.148;2023-12-28T02:54:59;3.63;;;2.37;;
10277;SDS011;5184;51.376;7.148;2023-12-28T02:57:26;3.63;;;2.27;;
10277;SDS011;5184;51.376;7.148;2023-12-28T02:59:53;2.47;;;2.00;;
10277;SDS011;5184;51.376;7.148;2023-12-28T03:02:21;5.20;;;2.10;;
10277;SDS011;5184;51.376;7.148;2023-12-28T03:04:48;2.47;;;2.27;;
10277;SDS011;5184;51.376;7.148;2023-12-28T03:07:15;5.30;;;2.13;;
10277;SDS011;5184;51.376;7.148;2023-12-28T03:09:42;2.77;;;2.10;;
10277;SDS011;5184;51.376;7.148;2023-12-28T03:12:10;3.97;;;2.30;;
10277;SDS011;5184;51.376;7.148;2023-12-28T03:14:37;2.63;;;2.10;;
10277;SDS011;5184;51.376;7.148;2023-12-28T03:17:05;2.63;;;2.30;;
10277;SDS011;5184;51.376;7.148;2023-12-28T03:19:32;3.73;;;2.23;;
10277;SDS011;5184;51.376;7.148;2023-12-28T03:21:59;3.80;;;2.43;;
10277;SDS011;5184;51.376;7.148;2023-12-28T03:24:26;3.50;;;2.40;;
10277;SDS011;5184;51.376;7.148;2023-12-28T03:26:53;3.20;;;2.47;;
10277;SDS011;5184;51.376;7.148;2023-12-28T03:29:19;2.40;;;2.20;;
10277;SDS011;5184;51.376;7.148;2023-12-28T03:31:47;3.83;;;2.30;;
10277;SDS011;5184;51.376;7.148;2023-12-28T03:34:14;3.70;;;2.47;;
10277;SDS011;5184;51.376;7.148;2023-12-28T03:36:41;3.30;;;2.47;;
10277;SDS011;5184;51.376;7.148;2023-12-28T03:39:09;3.13;;;2.37;;
10277;SDS011;5184;51.376;7.148;2023-12-28T03:41:36;3.60;;;2.70;;
10277;SDS011;5184;51.376;7.148;2023-12-28T03:44:03;3.07;;;2.50;;
10277;SDS011;5184;51.376;7.148;2023-12-28T03:46:29;5.60;;;2.50;;
10277;SDS011;5184;51.376;7.148;2023-12-28T03:48:56;5.83;;;2.60;;
10277;SDS011;5184;51.376;7.148;2023-12-28T03:51:23;3.97;;;2.47;;
10277;SDS011;5184;51.376;7.148;2023-12-28T03:53:50;3.17;;;2.27;;
10277;SDS011;5184;51.376;7.148;2023-12-28T03:56:21;5.10;;;2.27;;
10277;SDS011;5184;51.376;7.148;2023-12-28T03:58:49;4.97;;;2.30;;
10277;SDS011;5184;51.376;7.148;2023-12-28T04:01:16;4.17;;;2.43;;
10277;SDS011;5184;51.376;7.148;2023-12-28T04:03:41;5.70;;;2.30;;
10277;SDS011;5184;51.376;7.148;2023-12-28T04:06:08;2.47;;;2.17;;
10277;SDS011;5184;51.376;7.148;2023-12-28T04:08:34;3.17;;;2.20;;
10277;SDS011;5184;51.376;7.148;2023-12-28T04:11:02;4.30;;;2.07;;
10277;SDS011;5184;51.376;7.148;2023-12-28T04:13:29;2.70;;;1.90;;
10277;SDS011;5184;51.376;7.148;2023-12-28T04:15:57;2.03;;;1.77;;
10277;SDS011;5184;51.376;7.148;2023-12-28T04:18:24;3.57;;;1.97;;
10277;SDS011;5184;51.376;7.148;2023-12-28T04:20:51;3.10;;;2.00;;
10277;SDS011;5184;51.376;7.148;2023-12-28T04:23:19;3.77;;;1.90;;
10277;SDS011;5184;51.376;7.148;2023-12-28T04:25:46;2.83;;;1.93;;
10277;SDS011;5184;51.376;7.148;2023-12-28T04:28:13;8.30;;;2.00;;
10277;SDS011;5184;51.376;7.148;2023-12-28T04:30:41;2.30;;;1.90;;
10277;SDS011;5184;51.376;7.148;2023-12-28T04:33:08;3.30;;;1.93;;
10277;SDS011;5184;51.376;7.148;2023-12-28T04:35:35;2.70;;;2.17;;
10277;SDS011;5184;51.376;7.148;2023-12-28T04:38:03;2.03;;;1.60;;
10277;SDS011;5184;51.376;7.148;2023-12-28T04:40:30;3.97;;;1.80;;
10277;SDS011;5184;51.376;7.148;2023-12-28T04:42:57;2.87;;;1.70;;
10277;SDS011;5184;51.376;7.148;2023-12-28T04:45:23;2.40;;;1.70;;
10277;SDS011;5184;51.376;7.148;2023-12-28T04:47:50;2.10;;;1.80;;
10277;SDS011;5184;51.376;7.148;2023-12-28T04:50:16;2.03;;;1.80;;
10277;SDS011;5184;51.376;7.148;2023-12-28T04:52:43;3.70;;;1.90;;
10277;SDS011;5184;51.376;7.148;2023-12-28T04:55:10;2.20;;;1.70;;
10277;SDS011;5184;51.376;7.148;2023-12-28T04:57:36;3.83;;;1.87;;
10277;SDS011;5184;51.376;7.148;2023-12-28T05:00:04;3.43;;;1.83;;
10277;SDS011;5184;51.376;7.148;2023-12-28T05:02:31;1.93;;;1.47;;
10277;SDS011;5184;51.376;7.148;2023-12-28T05:04:58;7.10;;;1.80;;
10277;SDS011;5184;51.376;7.148;2023-12-28T05:07:25;3.70;;;1.90;;
10277;SDS011;5184;51.376;7.148;2023-12-28T05:09:51;3.03;;;1.60;;
10277;SDS011;5184;51.376;7.148;2023-12-28T05:12:18;2.33;;;1.47;;
10277;SDS011;5184;51.376;7.148;2023-12-28T05:14:45;3.03;;;1.70;;
10277;SDS011;5184;51.376;7.148;2023-12-28T05:17:11;2.67;;;1.53;;
10277;SDS011;5184;51.376;7.148;2023-12-28T05:19:38;2.90;;;1.70;;
10277;SDS011;5184;51.376;7.148;2023-12-28T05:22:04;2.40;;;1.73;;
10277;SDS011;5184;51.376;7.148;2023-12-28T05:24:31;2.07;;;1.50;;
10277;SDS011;5184;51.376;7.148;2023-12-28T05:26:58;2.97;;;1.80;;
10277;SDS011;5184;51.376;7.148;2023-12-28T05:29:24;1.80;;;1.50;;
10277;SDS011;5184;51.376;7.148;2023-12-28T05:31:51;2.47;;;1.60;;
10277;SDS011;5184;51.376;7.148;2023-12-28T05:34:18;4.13;;;1.73;;
10277;SDS011;5184;51.376;7.148;2023-12-28T05:36:46;3.47;;;1.70;;
10277;SDS011;5184;51.376;7.148;2023-12-28T05:39:13;2.83;;;1.87;;
10277;SDS011;5184;51.376;7.148;2023-12-28T05:41:40;2.50;;;1.63;;
10277;SDS011;5184;51.376;7.148;2023-12-28T05:44:08;3.93;;;1.77;;
10277;SDS011;5184;51.376;7.148;2023-12-28T05:46:35;1.97;;;1.70;;
10277;SDS011;5184;51.376;7.148;2023-12-28T05:49:02;2.87;;;1.73;;
10277;SDS011;5184;51.376;7.148;2023-12-28T05:51:30;3.60;;;2.00;;
10277;SDS011;5184;51.376;7.148;2023-12-28T05:53:56;2.40;;;1.57;;
10277;SDS011;5184;51.376;7.148;2023-12-28T05:56:24;3.07;;;1.77;;
10277;SDS011;5184;51.376;7.148;2023-12-28T05:58:52;5.43;;;2.00;;
10277;SDS011;5184;51.376;7.148;2023-12-28T06:01:19;3.10;;;1.80;;
10277;SDS011;5184;51.376;7.148;2023-12-28T06:03:47;3.03;;;1.80;;
10277;SDS011;5184;51.376;7.148;2023-12-28T06:06:14;5.17;;;2.13;;
10277;SDS011;5184;51.376;7.148;2023-12-28T06:08:41;2.57;;;1.57;;
10277;SDS011;5184;51.376;7.148;2023-12-28T06:11:08;3.97;;;1.73;;
10277;SDS011;5184;51.376;7.148;2023-12-28T06:13:36;2.50;;;1.60;;
10277;SDS011;5184;51.376;7.148;2023-12-28T06:16:03;2.63;;;1.83;;
10277;SDS011;5184;51.376;7.148;2023-12-28T06:18:30;2.57;;;1.60;;
10277;SDS011;5184;51.376;7.148;2023-12-28T06:20:56;3.00;;;1.70;;
10277;SDS011;5184;51.376;7.148;2023-12-28T06:23:23;2.07;;;1.40;;
10277;SDS011;5184;51.376;7.148;2023-12-28T06:25:50;4.70;;;1.90;;
10277;SDS011;5184;51.376;7.148;2023-12-28T06:28:17;2.17;;;1.70;;
10277;SDS011;5184;51.376;7.148;2023-12-28T06:30:44;4.03;;;1.83;;
10277;SDS011;5184;51.376;7.148;2023-12-28T06:33:10;3.00;;;1.77;;
10277;SDS011;5184;51.376;7.148;2023-12-28T06:35:38;4.37;;;1.90;;
10277;SDS011;5184;51.376;7.148;2023-12-28T06:38:05;1.90;;;1.67;;
10277;SDS011;5184;51.376;7.148;2023-12-28T06:40:32;2.60;;;1.80;;
10277;SDS011;5184;51.376;7.148;2023-12-28T06:43:00;2.47;;;1.73;;
10277;SDS011;5184;51.376;7.148;2023-12-28T06:45:26;3.57;;;1.87;;
10277;SDS011;5184;51.376;7.148;2023-12-28T06:47:53;2.47;;;1.77;;
10277;SDS011;5184;51.376;7.148;2023-12-28T06:50:20;3.50;;;1.93;;
10277;SDS011;5184;51.376;7.148;2023-12-28T06:52:47;3.17;;;1.80;;
10277;SDS011;5184;51.376;7.148;2023-12-28T06:55:13;4.63;;;1.90;;
10277;SDS011;5184;51.376;7.148;2023-12-28T06:57:40;4.47;;;1.80;;
10277;SDS011;5184;51.376;7.148;2023-12-28T07:00:07;3.93;;;2.07;;
10277;SDS011;5184;51.376;7.148;2023-12-28T07:02:34;3.37;;;2.00;;
10277;SDS011;5184;51.376;7.148;2023-12-28T07:05:00;3.23;;;1.83;;
10277;SDS011;5184;51.376;7.148;2023-12-28T07:07:27;3.10;;;2.03;;
10277;SDS011;5184;51.376;7.148;2023-12-28T07:09:54;2.47;;;1.60;;
10277;SDS011;5184;51.376;7.148;2023-12-28T07:12:21;4.53;;;1.97;;
10277;SDS011;5184;51.376;7.148;2023-12-28T07:14:48;4.60;;;2.00;;
10277;SDS011;5184;51.376;7.148;2023-12-28T07:17:16;3.37;;;1.90;;
10277;SDS011;5184;51.376;7.148;2023-12-28T07:19:43;4.70;;;1.90;;
10277;SDS011;5184;51.376;7.148;2023-12-28T07:22:10;2.20;;;1.60;;
10277;SDS011;5184;51.376;7.148;2023-12-28T07:24:37;2.80;;;1.80;;
10277;SDS011;5184;51.376;7.148;2023-12-28T07:27:04;5.20;;;1.70;;
10277;SDS011;5184;51.376;7.148;2023-12-28T07:29:31;3.10;;;1.93;;
10277;SDS011;5184;51.376;7.148;2023-12-28T07:31:58;3.57;;;1.80;;
10277;SDS011;5184;51.376;7.148;2023-12-28T07:34:26;3.50;;;1.80;;
10277;SDS011;5184;51.376;7.148;2023-12-28T07:36:53;4.60;;;1.97;;
10277;SDS011;5184;51.376;7.148;2023-12-28T07:39:20;3.30;;;1.80;;
10277;SDS011;5184;51.376;7.148;2023-12-28T07:41:48;5.07;;;1.80;;
10277;SDS011;5184;51.376;7.148;2023-12-28T07:44:15;3.23;;;1.67;;
10277;SDS011;5184;51.376;7.148;2023-12-28T07:46:42;4.90;;;2.13;;
10277;SDS011;5184;51.376;7.148;2023-12-28T07:49:08;3.60;;;1.70;;
10277;SDS011;5184;51.376;7.148;2023-12-28T07:51:35;5.07;;;1.77;;
10277;SDS011;5184;51.376;7.148;2023-12-28T07:54:01;4.40;;;2.13;;
10277;SDS011;5184;51.376;7.148;2023-12-28T07:56:28;3.33;;;1.87;;
10277;SDS011;5184;51.376;7.148;2023-12-28T07:58:55;4.43;;;1.80;;
10277;SDS011;5184;51.376;7.148;2023-12-28T08:01:21;4.33;;;1.80;;
10277;SDS011;5184;51.376;7.148;2023-12-28T08:03:49;3.63;;;2.03;;
10277;SDS011;5184;51.376;7.148;2023-12-28T08:06:16;2.40;;;1.50;;
10277;SDS011;5184;51.376;7.148;2023-12-28T08:08:43;7.17;;;1.87;;
10277;SDS011;5184;51.376;7.148;2023-12-28T08:11:11;6.30;;;1.80;;
10277;SDS011;5184;51.376;7.148;2023-12-28T08:13:38;3.63;;;1.83;;
10277;SDS011;5184;51.376;7.148;2023-12-28T08:16:05;6.23;;;1.83;;
10277;SDS011;5184;51.376;7.148;2023-12-28T08:18:32;7.17;;;2.00;;
10277;SDS011;5184;51.376;7.148;2023-12-28T08:20:59;4.50;;;1.70;;
10277;SDS011;5184;51.376;7.148;2023-12-28T08:23:25;7.07;;;2.10;;
10277;SDS011;5184;51.376;7.148;2023-12-28T08:25:52;2.97;;;1.37;;
10277;SDS011;5184;51.376;7.148;2023-12-28T08:28:19;5.67;;;1.93;;
10277;SDS011;5184;51.376;7.148;2023-12-28T08:30:46;3.10;;;1.70;;
10277;SDS011;5184;51.376;7.148;2023-12-28T08:33:13;4.97;;;1.97;;
10277;SDS011;5184;51.376;7.148;2023-12-28T08:35:39;3.93;;;1.80;;
10277;SDS011;5184;51.376;7.148;2023-12-28T08:38:06;3.20;;;1.50;;
10277;SDS011;5184;51.376;7.148;2023-12-28T08:40:33;5.90;;;2.10;;
10277;SDS011;5184;51.376;7.148;2023-12-28T08:42:59;4.63;;;1.80;;
10277;SDS011;5184;51.376;7.148;2023-12-28T08:45:26;4.30;;;1.73;;
10277;SDS011;5184;51.376;7.148;2023-12-28T08:47:54;2.23;;;1.60;;
10277;SDS011;5184;51.376;7.148;2023-12-28T08:50:21;5.97;;;1.93;;
10277;SDS011;5184;51.376;7.148;2023-12-28T08:52:48;3.50;;;1.70;;
10277;SDS011;5184;51.376;7.148;2023-12-28T08:55:16;5.90;;;2.30;;
10277;SDS011;5184;51.376;7.148;2023-12-28T08:57:43;5.37;;;2.37;;
10277;SDS011;5184;51.376;7.148;2023-12-28T09:00:11;4.70;;;2.13;;
10277;SDS011;5184;51.376;7.148;2023-12-28T09:02:38;4.23;;;1.70;;
10277;SDS011;5184;51.376;7.148;2023-12-28T09:05:05;2.97;;;1.93;;
10277;SDS011;5184;51.376;7.148;2023-12-28T09:07:32;4.27;;;1.87;;
10277;SDS011;5184;51.376;7.148;2023-12-28T09:09:59;3.87;;;2.20;;
10277;SDS011;5184;51.376;7.148;2023-12-28T09:12:27;5.37;;;1.80;;
10277;SDS011;5184;51.376;7.148;2023-12-28T09:14:53;3.67;;;1.70;;
10277;SDS011;5184;51.376;7.148;2023-12-28T09:17:21;4.83;;;2.17;;
10277;SDS011;5184;51.376;7.148;2023-12-28T09:19:47;3.60;;;1.97;;
10277;SDS011;5184;51.376;7.148;2023-12-28T09:22:14;3.70;;;1.70;;
10277;SDS011;5184;51.376;7.148;2023-12-28T09:24:41;2.60;;;1.67;;
10277;SDS011;5184;51.376;7.148;2023-12-28T09:27:08;5.40;;;1.80;;
10277;SDS011;5184;51.376;7.148;2023-12-28T09:29:36;2.73;;;1.87;;
10277;SDS011;5184;51.376;7.148;2023-12-28T09:32:02;5.40;;;1.90;;
10277;SDS011;5184;51.376;7.148;2023-12-28T09:34:29;5.80;;;1.87;;
10277;SDS011;5184;51.376;7.148;2023-12-28T09:36:56;5.07;;;2.00;;
10277;SDS011;5184;51.376;7.148;2023-12-28T09:39:24;4.50;;;1.93;;
10277;SDS011;5184;51.376;7.148;2023-12-28T09:42:04;4.33;;;1.90;;
10277;SDS011;5184;51.376;7.148;2023-12-28T09:44:31;6.70;;;1.90;;
10277;SDS011;5184;51.376;7.148;2023-12-28T09:46:57;6.77;;;2.00;;
10277;SDS011;5184;51.376;7.148;2023-12-28T09:49:24;3.37;;;1.97;;
10277;SDS011;5184;51.376;7.148;2023-12-28T09:51:50;6.97;;;1.97;;
10277;SDS011;5184;51.376;7.148;2023-12-28T09:54:18;4.07;;;1.80;;
10277;SDS011;5184;51.376;7.148;2023-12-28T09:56:45;3.63;;;1.77;;
10277;SDS011;5184;51.376;7.148;2023-12-28T09:59:12;4.80;;;2.00;;
10277;SDS011;5184;51.376;7.148;2023-12-28T10:01:38;8.03;;;1.90;;
10277;SDS011;5184;51.376;7.148;2023-12-28T10:04:05;6.97;;;2.10;;
10277;SDS011;5184;51.376;7.148;2023-12-28T10:06:31;5.07;;;1.90;;
10277;SDS011;5184;51.376;7.148;2023-12-28T10:08:58;5.60;;;2.27;;
10277;SDS011;5184;51.376;7.148;2023-12-28T10:11:25;4.67;;;2.20;;
10277;SDS011;5184;51.376;7.148;2023-12-28T10:13:53;5.30;;;2.30;;
10277;SDS011;5184;51.376;7.148;2023-12-28T10:16:19;5.57;;;1.87;;
10277;SDS011;5184;51.376;7.148;2023-12-28T10:18:47;5.93;;;2.10;;
10277;SDS011;5184;51.376;7.148;2023-12-28T10:21:13;4.27;;;1.87;;
10277;SDS011;5184;51.376;7.148;2023-12-28T10:23:40;4.03;;;1.90;;
10277;SDS011;5184;51.376;7.148;2023-12-28T10:26:07;3.43;;;2.00;;
10277;SDS011;5184;51.376;7.148;2023-12-28T10:28:34;4.63;;;2.17;;
10277;SDS011;5184;51.376;7.148;2023-12-28T10:31:03;7.40;;;2.00;;
10277;SDS011;5184;51.376;7.148;2023-12-28T10:33:34;4.47;;;1.70;;
10277;SDS011;5184;51.376;7.148;2023-12-28T10:36:00;5.67;;;2.03;;
10277;SDS011;5184;51.376;7.148;2023-12-28T10:38:28;3.90;;;1.80;;
10277;SDS011;5184;51.376;7.148;2023-12-28T10:40:53;7.97;;;2.00;;
10277;SDS011;5184;51.376;7.148;2023-12-28T10:43:20;5.63;;;2.20;;
10277;SDS011;5184;51.376;7.148;2023-12-28T10:45:47;6.40;;;2.20;;
10277;SDS011;5184;51.376;7.148;2023-12-28T10:48:13;6.07;;;1.70;;
10277;SDS011;5184;51.376;7.148;2023-12-28T10:50:41;3.90;;;1.80;;
10277;SDS011;5184;51.376;7.148;2023-12-28T10:53:19;5.50;;;2.10;;
10277;SDS011;5184;51.376;7.148;2023-12-28T10:55:40;5.23;;;1.70;;
10277;SDS011;5184;51.376;7.148;2023-12-28T10:58:10;4.03;;;1.80;;
10277;SDS011;5184;51.376;7.148;2023-12-28T11:00:36;4.90;;;2.00;;
10277;SDS011;5184;51.376;7.148;2023-12-28T11:03:03;6.50;;;1.80;;
10277;SDS011;5184;51.376;7.148;2023-12-28T11:05:29;6.37;;;1.90;;
10277;SDS011;5184;51.376;7.148;2023-12-28T11:07:56;6.87;;;1.90;;
10277;SDS011;5184;51.376;7.148;2023-12-28T11:10:23;5.67;;;1.93;;
10277;SDS011;5184;51.376;7.148;2023-12-28T11:12:51;6.43;;;1.90;;
10277;SDS011;5184;51.376;7.148;2023-12-28T11:15:18;7.30;;;1.57;;
10277;SDS011;5184;51.376;7.148;2023-12-28T11:17:45;8.47;;;2.00;;
10277;SDS011;5184;51.376;7.148;2023-12-28T11:20:12;4.77;;;1.77;;
10277;SDS011;5184;51.376;7.148;2023-12-28T11:22:39;4.03;;;1.63;;
10277;SDS011;5184;51.376;7.148;2023-12-28T11:25:05;6.37;;;2.20;;
10277;SDS011;5184;51.376;7.148;2023-12-28T11:27:34;8.63;;;2.03;;
10277;SDS011;5184;51.376;7.148;2023-12-28T11:30:00;5.53;;;1.93;;
10277;SDS011;5184;51.376;7.148;2023-12-28T11:32:28;4.73;;;1.87;;
10277;SDS011;5184;51.376;7.148;2023-12-28T11:34:57;5.70;;;1.80;;
10277;SDS011;5184;51.376;7.148;2023-12-28T11:37:23;7.40;;;1.90;;
10277;SDS011;5184;51.376;7.148;2023-12-28T11:39:49;3.40;;;1.70;;
10277;SDS011;5184;51.376;7.148;2023-12-28T11:42:19;7.00;;;1.80;;
10277;SDS011;5184;51.376;7.148;2023-12-28T11:44:45;5.43;;;2.00;;
10277;SDS011;5184;51.376;7.148;2023-12-28T11:47:14;4.97;;;1.63;;
10277;SDS011;5184;51.376;7.148;2023-12-28T11:49:40;3.53;;;1.50;;
10277;SDS011;5184;51.376;7.148;2023-12-28T11:52:07;4.30;;;1.70;;
10277;SDS011;5184;51.376;7.148;2023-12-28T11:54:34;8.00;;;1.93;;
10277;SDS011;5184;51.376;7.148;2023-12-28T11:57:01;3.97;;;1.73;;
10277;SDS011;5184;51.376;7.148;2023-12-28T11:59:28;6.03;;;2.33;;
10277;SDS011;5184;51.376;7.148;2023-12-28T12:01:55;7.50;;;1.87;;
10277;SDS011;5184;51.376;7.148;2023-12-28T12:04:23;5.60;;;2.00;;
10277;SDS011;5184;51.376;7.148;2023-12-28T12:06:50;4.67;;;1.90;;
10277;SDS011;5184;51.376;7.148;2023-12-28T12:09:16;5.37;;;1.97;;
10277;SDS011;5184;51.376;7.148;2023-12-28T12:11:44;7.27;;;1.80;;
10277;SDS011;5184;51.376;7.148;2023-12-28T12:14:12;7.53;;;2.17;;
10277;SDS011;5184;51.376;7.148;2023-12-28T12:16:40;6.20;;;1.80;;
10277;SDS011;5184;51.376;7.148;2023-12-28T12:19:07;4.77;;;1.87;;
10277;SDS011;5184;51.376;7.148;2023-12-28T12:21:34;6.83;;;2.00;;
10277;SDS011;5184;51.376;7.148;2023-12-28T12:24:01;6.97;;;1.70;;
10277;SDS011;5184;51.376;7.148;2023-12-28T12:26:28;7.07;;;2.10;;
10277;SDS011;5184;51.376;7.148;2023-12-28T12:28:55;9.77;;;2.30;;
10277;SDS011;5184;51.376;7.148;2023-12-28T12:31:22;5.03;;;1.53;;
10277;SDS011;5184;51.376;7.148;2023-12-28T12:33:48;7.53;;;1.90;;
10277;SDS011;5184;51.376;7.148;2023-12-28T12:36:15;6.53;;;2.10;;
10277;SDS011;5184;51.376;7.148;2023-12-28T12:38:42;5.27;;;1.93;;
10277;SDS011;5184;51.376;7.148;2023-12-28T12:41:10;6.70;;;1.80;;
10277;SDS011;5184;51.376;7.148;2023-12-28T12:43:36;4.20;;;1.70;;
10277;SDS011;5184;51.376;7.148;2023-12-28T12:46:03;13.20;;;2.53;;
10277;SDS011;5184;51.376;7.148;2023-12-28T12:48:29;4.47;;;1.70;;
10277;SDS011;5184;51.376;7.148;2023-12-28T12:50:56;5.97;;;1.77;;
10277;SDS011;5184;51.376;7.148;2023-12-28T12:53:22;5.03;;;1.73;;
10277;SDS011;5184;51.376;7.148;2023-12-28T12:55:53;6.73;;;2.10;;
10277;SDS011;5184;51.376;7.148;2023-12-28T12:58:16;5.47;;;2.20;;
10277;SDS011;5184;51.376;7.148;2023-12-28T13:00:45;4.47;;;1.70;;
10277;SDS011;5184;51.376;7.148;2023-12-28T13:03:11;5.50;;;1.83;;
10277;SDS011;5184;51.376;7.148;2023-12-28T13:05:38;8.20;;;1.50;;
10277;SDS011;5184;51.376;7.148;2023-12-28T13:08:04;4.70;;;1.63;;
10277;SDS011;5184;51.376;7.148;2023-12-28T13:10:31;4.40;;;1.60;;
10277;SDS011;5184;51.376;7.148;2023-12-28T13:12:58;6.90;;;1.90;;
10277;SDS011;5184;51.376;7.148;2023-12-28T13:15:25;3.90;;;1.77;;
10277;SDS011;5184;51.376;7.148;2023-12-28T13:17:52;4.23;;;2.23;;
10277;SDS011;5184;51.376;7.148;2023-12-28T13:20:19;5.80;;;1.57;;
10277;SDS011;5184;51.376;7.148;2023-12-28T13:22:46;6.47;;;1.87;;
10277;SDS011;5184;51.376;7.148;2023-12-28T13:25:12;4.70;;;1.80;;
10277;SDS011;5184;51.376;7.148;2023-12-28T13:27:39;8.50;;;2.10;;
10277;SDS011;5184;51.376;7.148;2023-12-28T13:30:05;8.97;;;1.90;;
10277;SDS011;5184;51.376;7.148;2023-12-28T13:32:33;4.53;;;1.80;;
10277;SDS011;5184;51.376;7.148;2023-12-28T13:35:00;4.73;;;1.47;;
10277;SDS011;5184;51.376;7.148;2023-12-28T13:37:27;6.30;;;1.90;;
10277;SDS011;5184;51.376;7.148;2023-12-28T13:39:53;8.23;;;2.07;;
10277;SDS011;5184;51.376;7.148;2023-12-28T13:42:20;4.73;;;2.03;;
10277;SDS011;5184;51.376;7.148;2023-12-28T13:44:46;4.63;;;2.10;;
10277;SDS011;5184;51.376;7.148;2023-12-28T13:47:13;8.10;;;2.40;;
10277;SDS011;5184;51.376;7.148;2023-12-28T13:49:40;5.37;;;1.70;;
10277;SDS011;5184;51.376;7.148;2023-12-28T13:52:06;4.07;;;1.57;;
10277;SDS011;5184;51.376;7.148;2023-12-28T13:54:34;7.10;;;1.57;;
10277;SDS011;5184;51.376;7.148;2023-12-28T13:57:01;4.00;;;1.60;;
10277;SDS011;5184;51.376;7.148;2023-12-28T13:59:28;5.83;;;1.80;;
10277;SDS011;5184;51.376;7.148;2023-12-28T14:01:56;7.40;;;1.60;;
10277;SDS011;5184;51.376;7.148;2023-12-28T14:04:23;7.17;;;1.60;;
10277;SDS011;5184;51.376;7.148;2023-12-28T14:06:50;6.30;;;1.60;;
10277;SDS011;5184;51.376;7.148;2023-12-28T14:09:18;3.03;;;1.77;;
10277;SDS011;5184;51.376;7.148;2023-12-28T14:11:45;6.03;;;1.60;;
10277;SDS011;5184;51.376;7.148;2023-12-28T14:14:11;5.37;;;1.80;;
10277;SDS011;5184;51.376;7.148;2023-12-28T14:16:38;5.13;;;1.57;;
10277;SDS011;5184;51.376;7.148;2023-12-28T14:19:05;3.17;;;1.40;;
10277;SDS011;5184;51.376;7.148;2023-12-28T14:21:35;9.73;;;1.93;;
10277;SDS011;5184;51.376;7.148;2023-12-28T14:24:03;4.27;;;1.57;;
10277;SDS011;5184;51.376;7.148;2023-12-28T14:26:31;4.93;;;1.63;;
10277;SDS011;5184;51.376;7.148;2023-12-28T14:28:57;4.70;;;1.50;;
10277;SDS011;5184;51.376;7.148;2023-12-28T14:31:23;2.83;;;1.50;;
10277;SDS011;5184;51.376;7.148;2023-12-28T14:33:51;6.80;;;1.90;;
10277;SDS011;5184;51.376;7.148;2023-12-28T14:36:21;3.30;;;1.40;;
10277;SDS011;5184;51.376;7.148;2023-12-28T14:38:47;4.33;;;1.67;;
10277;SDS011;5184;51.376;7.148;2023-12-28T14:41:14;7.30;;;1.80;;
10277;SDS011;5184;51.376;7.148;2023-12-28T14:43:42;6.27;;;1.90;;
10277;SDS011;5184;51.376;7.148;2023-12-28T14:46:08;4.33;;;2.00;;
10277;SDS011;5184;51.376;7.148;2023-12-28T14:48:35;4.27;;;1.50;;
10277;SDS011;5184;51.376;7.148;2023-12-28T14:51:02;3.57;;;1.80;;
10277;SDS011;5184;51.376;7.148;2023-12-28T14:53:28;4.23;;;1.60;;
10277;SDS011;5184;51.376;7.148;2023-12-28T14:55:55;5.80;;;1.77;;
10277;SDS011;5184;51.376;7.148;2023-12-28T14:58:21;6.80;;;1.90;;